sensor_id;sensor_type;location;lat;lon;timestamp;P1;durP1;ratioP1;P2;durP2;ratioP2
43146;SDS011;28752;48.266;7.402;2023-12-29T00:00:40;12.97;;;8.90;;
43146;SDS011;28752;48.266;7.402;2023-12-29T00:03:05;11.97;;;8.07;;
43146;SDS011;28752;48.266;7.402;2023-12-29T00:05:31;13.80;;;8.57;;
43146;SDS011;28752;48.266;7.402;2023-12-29T00:07:56;11.20;;;7.43;;
43146;SDS011;28752;48.266;7.402;2023-12-29T00:10:21;11.37;;;8.17;;
43146;SDS011;28752;48.266;7.402;2023-12-29T00:12:47;12.23;;;7.73;;
43146;SDS011;28752;48.266;7.402;2023-12-29T00:15:18;11.03;;;7.27;;
43146;SDS011;28752;48.266;7.402;2023-12-29T00:18:22;10.38;;;7.45;;
43146;SDS011;28752;48.266;7.402;2023-12-29T00:28:22;10.60;;;7.07;;
43146;SDS011;28752;48.266;7.402;2023-12-29T00:30:48;10.23;;;6.93;;
43146;SDS011;28752;48.266;7.402;2023-12-29T00:33:13;9.87;;;6.80;;
43146;SDS011;28752;48.266;7.402;2023-12-29T00:35:38;10.00;;;6.60;;
43146;SDS011;28752;48.266;7.402;2023-12-29T00:38:04;9.87;;;6.40;;
43146;SDS011;28752;48.266;7.402;2023-12-29T00:40:31;10.65;;;7.07;;
43146;SDS011;28752;48.266;7.402;2023-12-29T00:42:56;10.97;;;7.03;;
43146;SDS011;28752;48.266;7.402;2023-12-29T00:45:21;10.27;;;7.40;;
43146;SDS011;28752;48.266;7.402;2023-12-29T00:47:47;13.50;;;9.53;;
43146;SDS011;28752;48.266;7.402;2023-12-29T00:55:04;10.13;;;7.20;;
43146;SDS011;28752;48.266;7.402;2023-12-29T00:57:29;10.30;;;7.20;;
43146;SDS011;28752;48.266;7.402;2023-12-29T01:00:03;10.37;;;7.57;;
43146;SDS011;28752;48.266;7.402;2023-12-29T01:16:10;12.15;;;8.18;;
43146;SDS011;28752;48.266;7.402;2023-12-29T01:18:35;15.07;;;10.20;;
43146;SDS011;28752;48.266;7.402;2023-12-29T01:21:01;15.73;;;10.77;;
43146;SDS011;28752;48.266;7.402;2023-12-29T01:23:26;15.07;;;10.60;;
43146;SDS011;28752;48.266;7.402;2023-12-29T01:25:52;15.40;;;10.20;;
43146;SDS011;28752;48.266;7.402;2023-12-29T01:28:17;14.90;;;9.97;;
43146;SDS011;28752;48.266;7.402;2023-12-29T01:30:42;13.30;;;9.67;;
43146;SDS011;28752;48.266;7.402;2023-12-29T01:33:08;13.67;;;9.93;;
43146;SDS011;28752;48.266;7.402;2023-12-29T01:35:34;14.25;;;9.63;;
43146;SDS011;28752;48.266;7.402;2023-12-29T01:38:01;13.90;;;8.87;;
43146;SDS011;28752;48.266;7.402;2023-12-29T01:40:27;13.40;;;9.15;;
43146;SDS011;28752;48.266;7.402;2023-12-29T01:42:53;13.07;;;9.70;;
43146;SDS011;28752;48.266;7.402;2023-12-29T01:45:21;14.67;;;9.07;;
43146;SDS011;28752;48.266;7.402;2023-12-29T01:47:48;13.75;;;9.30;;
43146;SDS011;28752;48.266;7.402;2023-12-29T01:50:16;12.23;;;9.57;;
43146;SDS011;28752;48.266;7.402;2023-12-29T01:52:43;15.52;;;10.10;;
43146;SDS011;28752;48.266;7.402;2023-12-29T01:55:09;13.70;;;10.15;;
43146;SDS011;28752;48.266;7.402;2023-12-29T01:57:37;13.88;;;9.50;;
43146;SDS011;28752;48.266;7.402;2023-12-29T02:00:07;13.90;;;9.50;;
43146;SDS011;28752;48.266;7.402;2023-12-29T02:02:34;13.55;;;9.63;;
43146;SDS011;28752;48.266;7.402;2023-12-29T02:04:59;13.77;;;9.87;;
43146;SDS011;28752;48.266;7.402;2023-12-29T02:07:26;14.70;;;8.93;;
43146;SDS011;28752;48.266;7.402;2023-12-29T02:09:55;15.30;;;9.98;;
43146;SDS011;28752;48.266;7.402;2023-12-29T02:12:22;13.80;;;10.10;;
43146;SDS011;28752;48.266;7.402;2023-12-29T02:14:47;14.18;;;10.10;;
43146;SDS011;28752;48.266;7.402;2023-12-29T02:17:31;11.13;;;8.57;;
43146;SDS011;28752;48.266;7.402;2023-12-29T02:20:05;12.82;;;9.40;;
43146;SDS011;28752;48.266;7.402;2023-12-29T02:22:32;14.15;;;9.52;;
43146;SDS011;28752;48.266;7.402;2023-12-29T02:24:57;12.40;;;9.03;;
43146;SDS011;28752;48.266;7.402;2023-12-29T02:30:28;13.38;;;9.13;;
43146;SDS011;28752;48.266;7.402;2023-12-29T02:33:05;12.57;;;8.48;;
43146;SDS011;28752;48.266;7.402;2023-12-29T02:35:35;11.38;;;8.05;;
43146;SDS011;28752;48.266;7.402;2023-12-29T02:38:04;14.07;;;8.93;;
43146;SDS011;28752;48.266;7.402;2023-12-29T02:40:30;11.73;;;7.60;;
43146;SDS011;28752;48.266;7.402;2023-12-29T02:42:55;11.48;;;7.07;;
43146;SDS011;28752;48.266;7.402;2023-12-29T02:45:21;11.40;;;7.40;;
43146;SDS011;28752;48.266;7.402;2023-12-29T02:47:46;10.60;;;6.97;;
43146;SDS011;28752;48.266;7.402;2023-12-29T02:50:13;12.90;;;8.13;;
43146;SDS011;28752;48.266;7.402;2023-12-29T02:52:38;11.47;;;7.77;;
43146;SDS011;28752;48.266;7.402;2023-12-29T02:55:04;11.27;;;7.33;;
43146;SDS011;28752;48.266;7.402;2023-12-29T02:57:29;11.90;;;8.45;;
43146;SDS011;28752;48.266;7.402;2023-12-29T02:59:55;11.67;;;8.27;;
43146;SDS011;28752;48.266;7.402;2023-12-29T03:02:21;12.90;;;8.32;;
43146;SDS011;28752;48.266;7.402;2023-12-29T03:04:46;13.07;;;8.38;;
43146;SDS011;28752;48.266;7.402;2023-12-29T03:07:12;13.13;;;7.87;;
43146;SDS011;28752;48.266;7.402;2023-12-29T03:09:37;11.43;;;7.70;;
43146;SDS011;28752;48.266;7.402;2023-12-29T03:12:02;12.37;;;7.30;;
43146;SDS011;28752;48.266;7.402;2023-12-29T03:14:28;9.65;;;6.75;;
43146;SDS011;28752;48.266;7.402;2023-12-29T03:16:54;10.02;;;6.72;;
43146;SDS011;28752;48.266;7.402;2023-12-29T03:19:19;11.83;;;6.87;;
43146;SDS011;28752;48.266;7.402;2023-12-29T03:21:45;9.80;;;6.13;;
43146;SDS011;28752;48.266;7.402;2023-12-29T03:24:10;9.77;;;6.03;;
43146;SDS011;28752;48.266;7.402;2023-12-29T03:26:35;10.90;;;5.60;;
43146;SDS011;28752;48.266;7.402;2023-12-29T03:29:01;7.23;;;4.60;;
43146;SDS011;28752;48.266;7.402;2023-12-29T03:31:26;6.20;;;4.03;;
43146;SDS011;28752;48.266;7.402;2023-12-29T03:33:52;6.63;;;3.97;;
43146;SDS011;28752;48.266;7.402;2023-12-29T03:36:17;5.05;;;3.35;;
43146;SDS011;28752;48.266;7.402;2023-12-29T03:38:43;5.93;;;2.90;;
43146;SDS011;28752;48.266;7.402;2023-12-29T03:41:08;4.90;;;2.70;;
43146;SDS011;28752;48.266;7.402;2023-12-29T03:43:33;4.33;;;2.40;;
43146;SDS011;28752;48.266;7.402;2023-12-29T03:56:16;7.03;;;4.13;;
43146;SDS011;28752;48.266;7.402;2023-12-29T04:02:07;6.95;;;4.35;;
43146;SDS011;28752;48.266;7.402;2023-12-29T04:04:37;7.10;;;4.30;;
43146;SDS011;28752;48.266;7.402;2023-12-29T04:07:04;7.68;;;4.00;;
43146;SDS011;28752;48.266;7.402;2023-12-29T04:09:30;7.57;;;4.57;;
43146;SDS011;28752;48.266;7.402;2023-12-29T04:11:55;8.23;;;4.70;;
43146;SDS011;28752;48.266;7.402;2023-12-29T04:14:21;6.00;;;4.07;;
43146;SDS011;28752;48.266;7.402;2023-12-29T04:16:46;5.97;;;3.80;;
43146;SDS011;28752;48.266;7.402;2023-12-29T04:19:11;6.93;;;3.87;;
43146;SDS011;28752;48.266;7.402;2023-12-29T04:21:37;5.90;;;3.40;;
43146;SDS011;28752;48.266;7.402;2023-12-29T04:24:02;5.50;;;3.40;;
43146;SDS011;28752;48.266;7.402;2023-12-29T04:26:27;5.77;;;3.53;;
43146;SDS011;28752;48.266;7.402;2023-12-29T04:28:53;5.77;;;3.30;;
43146;SDS011;28752;48.266;7.402;2023-12-29T04:31:18;4.63;;;3.00;;
43146;SDS011;28752;48.266;7.402;2023-12-29T04:33:44;5.60;;;2.93;;
43146;SDS011;28752;48.266;7.402;2023-12-29T04:36:09;5.07;;;2.80;;
43146;SDS011;28752;48.266;7.402;2023-12-29T04:38:34;4.30;;;2.77;;
43146;SDS011;28752;48.266;7.402;2023-12-29T04:40:59;5.07;;;2.60;;
43146;SDS011;28752;48.266;7.402;2023-12-29T04:43:25;5.50;;;3.07;;
43146;SDS011;28752;48.266;7.402;2023-12-29T04:45:50;5.17;;;2.53;;
43146;SDS011;28752;48.266;7.402;2023-12-29T04:48:15;4.80;;;2.77;;
43146;SDS011;28752;48.266;7.402;2023-12-29T04:50:41;5.03;;;3.03;;
43146;SDS011;28752;48.266;7.402;2023-12-29T04:53:06;5.43;;;2.73;;
43146;SDS011;28752;48.266;7.402;2023-12-29T04:55:31;6.47;;;3.13;;
43146;SDS011;28752;48.266;7.402;2023-12-29T04:57:57;5.37;;;2.90;;
43146;SDS011;28752;48.266;7.402;2023-12-29T05:00:22;6.13;;;3.10;;
43146;SDS011;28752;48.266;7.402;2023-12-29T05:02:47;4.70;;;2.60;;
43146;SDS011;28752;48.266;7.402;2023-12-29T05:05:13;5.90;;;3.33;;
43146;SDS011;28752;48.266;7.402;2023-12-29T05:07:40;6.57;;;3.43;;
43146;SDS011;28752;48.266;7.402;2023-12-29T05:10:06;5.40;;;3.42;;
43146;SDS011;28752;48.266;7.402;2023-12-29T05:12:32;5.85;;;3.20;;
43146;SDS011;28752;48.266;7.402;2023-12-29T05:14:57;6.37;;;3.70;;
43146;SDS011;28752;48.266;7.402;2023-12-29T05:17:23;6.30;;;3.40;;
43146;SDS011;28752;48.266;7.402;2023-12-29T05:19:48;4.77;;;3.10;;
43146;SDS011;28752;48.266;7.402;2023-12-29T05:22:13;5.00;;;3.30;;
43146;SDS011;28752;48.266;7.402;2023-12-29T05:24:42;5.10;;;3.40;;
43146;SDS011;28752;48.266;7.402;2023-12-29T05:27:07;6.23;;;3.30;;
43146;SDS011;28752;48.266;7.402;2023-12-29T05:29:33;5.43;;;3.47;;
43146;SDS011;28752;48.266;7.402;2023-12-29T05:31:58;5.63;;;3.43;;
43146;SDS011;28752;48.266;7.402;2023-12-29T05:34:24;5.70;;;3.23;;
43146;SDS011;28752;48.266;7.402;2023-12-29T05:36:49;5.47;;;3.37;;
43146;SDS011;28752;48.266;7.402;2023-12-29T05:39:14;6.57;;;3.27;;
43146;SDS011;28752;48.266;7.402;2023-12-29T05:41:40;4.83;;;2.77;;
43146;SDS011;28752;48.266;7.402;2023-12-29T05:44:05;4.50;;;2.80;;
43146;SDS011;28752;48.266;7.402;2023-12-29T05:46:30;4.33;;;2.87;;
43146;SDS011;28752;48.266;7.402;2023-12-29T05:48:56;5.20;;;3.10;;
43146;SDS011;28752;48.266;7.402;2023-12-29T05:51:21;5.67;;;3.27;;
43146;SDS011;28752;48.266;7.402;2023-12-29T05:53:47;4.53;;;2.83;;
43146;SDS011;28752;48.266;7.402;2023-12-29T05:56:12;5.50;;;3.20;;
43146;SDS011;28752;48.266;7.402;2023-12-29T05:58:41;6.50;;;3.00;;
43146;SDS011;28752;48.266;7.402;2023-12-29T06:01:08;4.85;;;3.10;;
43146;SDS011;28752;48.266;7.402;2023-12-29T06:03:34;6.13;;;3.10;;
43146;SDS011;28752;48.266;7.402;2023-12-29T06:05:59;6.07;;;3.60;;
43146;SDS011;28752;48.266;7.402;2023-12-29T06:08:24;5.87;;;3.73;;
43146;SDS011;28752;48.266;7.402;2023-12-29T06:10:51;5.22;;;3.50;;
43146;SDS011;28752;48.266;7.402;2023-12-29T06:13:16;6.37;;;3.67;;
43146;SDS011;28752;48.266;7.402;2023-12-29T06:15:42;6.60;;;3.42;;
43146;SDS011;28752;48.266;7.402;2023-12-29T06:18:07;4.77;;;3.30;;
43146;SDS011;28752;48.266;7.402;2023-12-29T06:20:33;5.60;;;3.30;;
43146;SDS011;28752;48.266;7.402;2023-12-29T06:22:59;6.03;;;3.47;;
43146;SDS011;28752;48.266;7.402;2023-12-29T06:25:24;6.53;;;4.13;;
43146;SDS011;28752;48.266;7.402;2023-12-29T06:27:49;6.00;;;3.70;;
43146;SDS011;28752;48.266;7.402;2023-12-29T06:30:15;5.83;;;3.33;;
43146;SDS011;28752;48.266;7.402;2023-12-29T06:32:41;6.40;;;3.90;;
43146;SDS011;28752;48.266;7.402;2023-12-29T06:35:06;6.50;;;3.90;;
43146;SDS011;28752;48.266;7.402;2023-12-29T06:37:32;6.40;;;3.83;;
43146;SDS011;28752;48.266;7.402;2023-12-29T06:39:58;6.80;;;4.20;;
43146;SDS011;28752;48.266;7.402;2023-12-29T06:42:23;7.43;;;4.25;;
43146;SDS011;28752;48.266;7.402;2023-12-29T06:44:49;6.80;;;3.70;;
43146;SDS011;28752;48.266;7.402;2023-12-29T06:47:14;6.50;;;3.93;;
43146;SDS011;28752;48.266;7.402;2023-12-29T06:49:39;7.30;;;4.33;;
43146;SDS011;28752;48.266;7.402;2023-12-29T06:52:05;5.85;;;3.75;;
43146;SDS011;28752;48.266;7.402;2023-12-29T06:54:31;5.57;;;3.57;;
43146;SDS011;28752;48.266;7.402;2023-12-29T06:56:56;5.63;;;3.33;;
43146;SDS011;28752;48.266;7.402;2023-12-29T06:59:22;5.53;;;3.67;;
43146;SDS011;28752;48.266;7.402;2023-12-29T07:01:47;7.47;;;4.00;;
43146;SDS011;28752;48.266;7.402;2023-12-29T07:04:13;6.88;;;4.15;;
43146;SDS011;28752;48.266;7.402;2023-12-29T07:06:40;6.85;;;4.30;;
43146;SDS011;28752;48.266;7.402;2023-12-29T07:09:06;6.70;;;4.03;;
43146;SDS011;28752;48.266;7.402;2023-12-29T07:16:23;7.77;;;4.33;;
43146;SDS011;28752;48.266;7.402;2023-12-29T07:18:48;6.80;;;3.97;;
43146;SDS011;28752;48.266;7.402;2023-12-29T07:21:14;6.63;;;4.40;;
43146;SDS011;28752;48.266;7.402;2023-12-29T07:23:41;6.72;;;4.50;;
43146;SDS011;28752;48.266;7.402;2023-12-29T07:26:06;8.27;;;4.60;;
43146;SDS011;28752;48.266;7.402;2023-12-29T07:28:32;7.23;;;4.90;;
43146;SDS011;28752;48.266;7.402;2023-12-29T07:30:58;8.65;;;6.60;;
43146;SDS011;28752;48.266;7.402;2023-12-29T07:33:23;7.97;;;5.03;;
43146;SDS011;28752;48.266;7.402;2023-12-29T07:35:49;7.78;;;4.95;;
43146;SDS011;28752;48.266;7.402;2023-12-29T07:38:15;8.40;;;5.40;;
43146;SDS011;28752;48.266;7.402;2023-12-29T07:40:40;9.00;;;5.50;;
43146;SDS011;28752;48.266;7.402;2023-12-29T07:43:06;7.63;;;4.67;;
43146;SDS011;28752;48.266;7.402;2023-12-29T07:45:31;5.93;;;4.17;;
43146;SDS011;28752;48.266;7.402;2023-12-29T07:47:56;7.80;;;4.67;;
43146;SDS011;28752;48.266;7.402;2023-12-29T07:50:22;7.20;;;4.70;;
43146;SDS011;28752;48.266;7.402;2023-12-29T07:52:47;6.77;;;4.80;;
43146;SDS011;28752;48.266;7.402;2023-12-29T07:55:13;7.20;;;4.40;;
43146;SDS011;28752;48.266;7.402;2023-12-29T07:57:41;7.45;;;4.55;;
43146;SDS011;28752;48.266;7.402;2023-12-29T08:00:07;7.93;;;4.15;;
43146;SDS011;28752;48.266;7.402;2023-12-29T08:02:32;7.10;;;3.75;;
43146;SDS011;28752;48.266;7.402;2023-12-29T08:04:58;6.13;;;3.20;;
43146;SDS011;28752;48.266;7.402;2023-12-29T08:07:23;5.67;;;3.73;;
43146;SDS011;28752;48.266;7.402;2023-12-29T08:09:49;7.97;;;4.70;;
43146;SDS011;28752;48.266;7.402;2023-12-29T08:12:14;6.90;;;4.90;;
43146;SDS011;28752;48.266;7.402;2023-12-29T08:14:39;8.37;;;4.00;;
43146;SDS011;28752;48.266;7.402;2023-12-29T08:17:05;6.63;;;4.18;;
43146;SDS011;28752;48.266;7.402;2023-12-29T08:19:32;7.28;;;3.80;;
43146;SDS011;28752;48.266;7.402;2023-12-29T08:21:57;7.65;;;4.20;;
43146;SDS011;28752;48.266;7.402;2023-12-29T08:24:23;7.30;;;4.37;;
43146;SDS011;28752;48.266;7.402;2023-12-29T08:26:48;7.57;;;4.17;;
43146;SDS011;28752;48.266;7.402;2023-12-29T08:29:14;8.13;;;4.17;;
43146;SDS011;28752;48.266;7.402;2023-12-29T08:31:40;5.75;;;3.60;;
43146;SDS011;28752;48.266;7.402;2023-12-29T08:34:06;6.72;;;3.90;;
43146;SDS011;28752;48.266;7.402;2023-12-29T08:36:32;6.30;;;4.00;;
43146;SDS011;28752;48.266;7.402;2023-12-29T08:38:57;6.87;;;3.63;;
43146;SDS011;28752;48.266;7.402;2023-12-29T08:41:23;6.53;;;3.88;;
43146;SDS011;28752;48.266;7.402;2023-12-29T08:43:48;6.93;;;3.97;;
43146;SDS011;28752;48.266;7.402;2023-12-29T08:46:14;5.83;;;3.53;;
43146;SDS011;28752;48.266;7.402;2023-12-29T08:48:39;5.53;;;2.90;;
43146;SDS011;28752;48.266;7.402;2023-12-29T08:51:04;5.80;;;3.33;;
43146;SDS011;28752;48.266;7.402;2023-12-29T08:55:59;5.82;;;3.35;;
43146;SDS011;28752;48.266;7.402;2023-12-29T08:58:24;5.47;;;3.40;;
43146;SDS011;28752;48.266;7.402;2023-12-29T09:00:49;6.43;;;3.50;;
43146;SDS011;28752;48.266;7.402;2023-12-29T09:03:15;6.00;;;3.80;;
43146;SDS011;28752;48.266;7.402;2023-12-29T09:05:40;7.60;;;3.47;;
43146;SDS011;28752;48.266;7.402;2023-12-29T09:08:05;5.87;;;3.17;;
43146;SDS011;28752;48.266;7.402;2023-12-29T09:10:31;5.43;;;3.28;;
43146;SDS011;28752;48.266;7.402;2023-12-29T09:12:56;5.03;;;2.73;;
43146;SDS011;28752;48.266;7.402;2023-12-29T09:15:22;5.97;;;3.10;;
43146;SDS011;28752;48.266;7.402;2023-12-29T09:17:48;6.57;;;3.33;;
43146;SDS011;28752;48.266;7.402;2023-12-29T09:20:13;5.07;;;2.50;;
43146;SDS011;28752;48.266;7.402;2023-12-29T09:22:39;4.75;;;2.83;;
43146;SDS011;28752;48.266;7.402;2023-12-29T09:25:05;5.97;;;2.90;;
43146;SDS011;28752;48.266;7.402;2023-12-29T09:27:30;5.47;;;3.03;;
43146;SDS011;28752;48.266;7.402;2023-12-29T09:29:56;5.70;;;3.70;;
43146;SDS011;28752;48.266;7.402;2023-12-29T09:32:21;5.93;;;3.17;;
43146;SDS011;28752;48.266;7.402;2023-12-29T09:34:46;5.80;;;3.00;;
43146;SDS011;28752;48.266;7.402;2023-12-29T09:37:12;5.23;;;3.00;;
43146;SDS011;28752;48.266;7.402;2023-12-29T09:39:37;6.07;;;3.30;;
43146;SDS011;28752;48.266;7.402;2023-12-29T09:42:03;5.63;;;3.27;;
43146;SDS011;28752;48.266;7.402;2023-12-29T09:44:30;5.13;;;3.28;;
43146;SDS011;28752;48.266;7.402;2023-12-29T09:47:01;5.75;;;2.92;;
43146;SDS011;28752;48.266;7.402;2023-12-29T09:49:35;5.32;;;2.95;;
43146;SDS011;28752;48.266;7.402;2023-12-29T09:52:09;5.03;;;3.30;;
43146;SDS011;28752;48.266;7.402;2023-12-29T09:54:37;5.55;;;2.85;;
43146;SDS011;28752;48.266;7.402;2023-12-29T09:57:04;5.32;;;3.40;;
43146;SDS011;28752;48.266;7.402;2023-12-29T10:01:57;4.57;;;2.33;;
43146;SDS011;28752;48.266;7.402;2023-12-29T10:04:23;5.90;;;2.50;;
43146;SDS011;28752;48.266;7.402;2023-12-29T10:06:48;4.77;;;2.60;;
43146;SDS011;28752;48.266;7.402;2023-12-29T10:09:15;4.75;;;2.58;;
43146;SDS011;28752;48.266;7.402;2023-12-29T10:11:45;4.47;;;2.55;;
43146;SDS011;28752;48.266;7.402;2023-12-29T10:14:23;5.38;;;2.65;;
43146;SDS011;28752;48.266;7.402;2023-12-29T10:16:58;5.57;;;2.75;;
43146;SDS011;28752;48.266;7.402;2023-12-29T10:19:54;4.85;;;2.83;;
43146;SDS011;28752;48.266;7.402;2023-12-29T10:22:42;5.20;;;2.65;;
43146;SDS011;28752;48.266;7.402;2023-12-29T10:25:25;5.10;;;3.30;;
43146;SDS011;28752;48.266;7.402;2023-12-29T10:27:50;7.03;;;2.93;;
43146;SDS011;28752;48.266;7.402;2023-12-29T10:30:16;5.28;;;3.20;;
43146;SDS011;28752;48.266;7.402;2023-12-29T10:32:42;6.28;;;3.03;;
43146;SDS011;28752;48.266;7.402;2023-12-29T10:35:10;4.93;;;2.90;;
43146;SDS011;28752;48.266;7.402;2023-12-29T10:37:39;6.45;;;3.15;;
43146;SDS011;28752;48.266;7.402;2023-12-29T10:40:05;7.65;;;3.00;;
43146;SDS011;28752;48.266;7.402;2023-12-29T10:42:30;5.22;;;2.95;;
43146;SDS011;28752;48.266;7.402;2023-12-29T10:45:05;5.13;;;3.53;;
43146;SDS011;28752;48.266;7.402;2023-12-29T10:47:33;5.10;;;3.15;;
43146;SDS011;28752;48.266;7.402;2023-12-29T10:58:02;7.45;;;3.10;;
43146;SDS011;28752;48.266;7.402;2023-12-29T11:04:08;6.93;;;3.30;;
43146;SDS011;28752;48.266;7.402;2023-12-29T11:06:41;13.80;;;3.65;;
43146;SDS011;28752;48.266;7.402;2023-12-29T11:09:10;7.93;;;2.73;;
43146;SDS011;28752;48.266;7.402;2023-12-29T11:11:36;10.27;;;4.95;;
43146;SDS011;28752;48.266;7.402;2023-12-29T11:14:02;5.70;;;3.40;;
43146;SDS011;28752;48.266;7.402;2023-12-29T11:16:29;4.80;;;2.72;;
43146;SDS011;28752;48.266;7.402;2023-12-29T11:18:56;5.05;;;2.58;;
43146;SDS011;28752;48.266;7.402;2023-12-29T11:21:22;4.25;;;2.10;;
43146;SDS011;28752;48.266;7.402;2023-12-29T11:23:51;4.50;;;2.28;;
43146;SDS011;28752;48.266;7.402;2023-12-29T11:26:16;7.88;;;2.70;;
43146;SDS011;28752;48.266;7.402;2023-12-29T11:28:45;4.63;;;2.80;;
43146;SDS011;28752;48.266;7.402;2023-12-29T11:31:11;6.15;;;2.97;;
43146;SDS011;28752;48.266;7.402;2023-12-29T11:33:41;5.43;;;2.97;;
43146;SDS011;28752;48.266;7.402;2023-12-29T11:36:16;5.13;;;2.92;;
43146;SDS011;28752;48.266;7.402;2023-12-29T11:43:59;5.18;;;2.22;;
43146;SDS011;28752;48.266;7.402;2023-12-29T11:46:35;5.82;;;2.22;;
43146;SDS011;28752;48.266;7.402;2023-12-29T11:49:04;5.80;;;3.13;;
43146;SDS011;28752;48.266;7.402;2023-12-29T11:51:42;6.85;;;3.15;;
43146;SDS011;28752;48.266;7.402;2023-12-29T11:54:08;6.85;;;3.00;;
43146;SDS011;28752;48.266;7.402;2023-12-29T11:56:38;4.30;;;1.95;;
43146;SDS011;28752;48.266;7.402;2023-12-29T11:59:15;2.83;;;1.30;;
43146;SDS011;28752;48.266;7.402;2023-12-29T12:01:42;5.15;;;2.28;;
43146;SDS011;28752;48.266;7.402;2023-12-29T12:07:17;3.22;;;1.10;;
43146;SDS011;28752;48.266;7.402;2023-12-29T12:12:44;5.00;;;2.10;;
43146;SDS011;28752;48.266;7.402;2023-12-29T12:18:04;3.45;;;1.40;;
43146;SDS011;28752;48.266;7.402;2023-12-29T12:20:34;1.50;;;1.00;;
43146;SDS011;28752;48.266;7.402;2023-12-29T12:23:18;3.78;;;1.30;;
43146;SDS011;28752;48.266;7.402;2023-12-29T12:25:45;3.30;;;1.52;;
43146;SDS011;28752;48.266;7.402;2023-12-29T12:28:11;4.38;;;1.48;;
43146;SDS011;28752;48.266;7.402;2023-12-29T12:30:39;7.53;;;1.60;;
43146;SDS011;28752;48.266;7.402;2023-12-29T12:33:04;6.13;;;1.60;;
43146;SDS011;28752;48.266;7.402;2023-12-29T12:35:30;2.50;;;1.07;;
43146;SDS011;28752;48.266;7.402;2023-12-29T12:38:08;2.70;;;1.20;;
43146;SDS011;28752;48.266;7.402;2023-12-29T12:40:35;2.80;;;1.00;;
43146;SDS011;28752;48.266;7.402;2023-12-29T12:43:01;6.50;;;1.58;;
